createdAt,value
2018-12-20T00:00:15.355Z,100990.65
2018-12-20T00:05:23.811Z,100990.28
2018-12-20T00:10:30.982Z,100988.59
2018-12-20T00:15:39.699Z,100970.66
2018-12-20T00:20:49.454Z,100970.66
2018-12-20T00:25:56.995Z,100973.40
2018-12-20T00:31:03.498Z,100973.48
2018-12-20T00:36:10.339Z,100972.69
2018-12-20T00:41:17.280Z,100971.88
2018-12-20T00:46:26.383Z,100967.68
2018-12-20T00:51:36.104Z,100965.64
2018-12-20T00:56:45.873Z,100963.09
2018-12-20T01:01:54.550Z,100957.00
2018-12-20T01:07:03.665Z,100954.02
2018-12-20T01:12:14.480Z,100951.60
2018-12-20T01:17:21.975Z,100952.57
2018-12-20T01:22:30.243Z,100951.27
2018-12-20T01:27:38.181Z,100957.21
2018-12-20T01:32:44.700Z,100959.70
2018-12-20T01:37:51.625Z,100961.40
2018-12-20T01:42:57.959Z,100959.91
2018-12-20T01:48:11.098Z,100958.45
2018-12-20T01:53:19.372Z,100962.46
2018-12-20T01:58:30.171Z,100961.22
2018-12-20T02:03:38.180Z,100958.87
2018-12-20T02:08:51.799Z,100957.16
2018-12-20T02:13:58.133Z,100957.91
2018-12-20T02:19:09.242Z,100960.52
2018-12-20T02:24:20.062Z,100959.58
2018-12-20T02:29:30.576Z,100954.81
2018-12-20T02:34:41.181Z,100952.98
2018-12-20T02:39:50.205Z,100946.89
2018-12-20T02:44:59.904Z,100947.96
2018-12-20T02:50:07.142Z,100952.59
2018-12-20T02:55:15.992Z,100940.05
2018-12-20T03:00:24.168Z,100936.74
2018-12-20T03:05:33.790Z,100934.50
2018-12-20T03:10:41.730Z,100936.22
2018-12-20T03:15:53.452Z,100937.95
2018-12-20T03:21:04.965Z,100931.41
2018-12-20T03:26:27.864Z,100940.47
2018-12-20T03:31:31.441Z,100936.64
2018-12-20T03:36:39.924Z,100933.28
2018-12-20T03:41:47.515Z,100932.05
2018-12-20T03:46:59.328Z,100928.47
2018-12-20T03:52:14.246Z,100925.80
2018-12-20T03:57:21.441Z,100930.62
2018-12-20T04:02:28.451Z,100920.10
2018-12-20T04:07:38.243Z,100924.13
2018-12-20T04:12:46.049Z,100925.83
2018-12-20T04:17:54.215Z,100920.62
2018-12-20T04:23:00.232Z,100926.31
2018-12-20T04:28:08.227Z,100922.38
2018-12-20T04:33:15.385Z,100922.71
2018-12-20T04:38:23.102Z,100927.11
2018-12-20T04:43:30.733Z,100917.12
2018-12-20T04:48:40.771Z,100914.44
2018-12-20T04:53:51.166Z,100913.04
2018-12-20T04:59:02.596Z,100911.19
2018-12-20T05:04:11.781Z,100909.80
2018-12-20T05:09:25.347Z,100913.55
2018-12-20T05:15:40.420Z,100915.16
2018-12-20T05:20:47.424Z,100918.03
2018-12-20T05:25:54.823Z,100917.09
2018-12-20T05:31:04.304Z,100927.31
2018-12-20T05:36:11.710Z,100926.34
2018-12-20T05:41:17.937Z,100932.31
2018-12-20T05:46:25.553Z,100938.28
2018-12-20T05:51:36.956Z,100945.92
2018-12-20T05:56:43.550Z,100940.70
2018-12-20T06:01:51.064Z,100953.62
2018-12-20T06:07:02.849Z,100952.34
2018-12-20T06:12:10.225Z,100962.14
2018-12-20T06:17:19.432Z,100966.63
2018-12-20T06:22:28.996Z,100965.72
2018-12-20T06:27:36.841Z,100969.24
2018-12-20T06:32:44.952Z,100960.53
2018-12-20T06:37:53.354Z,100973.42
2018-12-20T06:42:58.607Z,100968.30
2018-12-20T06:48:07.908Z,100973.48
2018-12-20T06:53:18.383Z,100971.69
2018-12-20T06:58:24.788Z,100973.52
2018-12-20T07:03:35.041Z,100976.58
2018-12-20T07:08:42.655Z,100974.19
2018-12-20T07:13:51.140Z,100979.83
2018-12-20T07:18:59.210Z,100977.71
2018-12-20T07:24:08.927Z,100977.77
2018-12-20T07:29:15.806Z,100975.49
2018-12-20T07:34:22.984Z,100970.70
2018-12-20T07:39:33.470Z,100975.01
2018-12-20T07:44:49.733Z,100971.78
2018-12-20T07:50:02.992Z,100974.70
2018-12-20T07:55:09.738Z,100977.14
2018-12-20T08:00:16.251Z,100973.39
2018-12-20T08:05:25.485Z,100973.82
2018-12-20T08:10:32.535Z,100986.61
2018-12-20T08:15:43.044Z,100986.94
2018-12-20T08:20:52.858Z,100990.95
2018-12-20T08:25:59.588Z,100988.47
2018-12-20T08:31:10.975Z,100997.51
2018-12-20T08:36:20.867Z,100999.08
2018-12-20T08:41:31.038Z,100995.22
2018-12-20T08:46:41.226Z,100990.75
2018-12-20T08:51:53.727Z,100996.37
2018-12-20T08:57:05.728Z,101002.01
2018-12-20T09:02:13.163Z,101006.35
2018-12-20T09:07:21.289Z,101005.66
2018-12-20T09:12:31.277Z,101006.31
2018-12-20T09:17:37.807Z,101005.14
2018-12-20T09:22:48.288Z,101017.09
2018-12-20T09:27:56.908Z,101011.25
2018-12-20T09:33:05.789Z,101008.77
2018-12-20T09:38:14.081Z,101009.28
2018-12-20T09:43:21.481Z,101014.37
2018-12-20T09:48:32.739Z,101013.55
2018-12-20T09:53:41.728Z,101015.18
2018-12-20T09:58:49.619Z,101022.91
2018-12-20T10:03:58.394Z,101025.22
2018-12-20T10:09:07.326Z,101026.70
2018-12-20T10:14:17.249Z,101020.59
2018-12-20T10:19:25.841Z,101013.11
2018-12-20T10:24:34.815Z,101023.17
2018-12-20T10:29:43.587Z,101014.77
2018-12-20T10:34:52.893Z,101017.80
2018-12-20T10:40:00.229Z,101015.55
2018-12-20T10:45:11.171Z,101014.00
2018-12-20T10:50:21.084Z,101019.92
2018-12-20T10:55:27.983Z,101015.50
2018-12-20T11:00:54.354Z,101008.19
2018-12-20T11:06:22.108Z,101005.75
2018-12-20T11:11:46.488Z,100997.17
2018-12-20T11:16:53.364Z,101003.59
2018-12-20T11:22:01.198Z,100990.89
2018-12-20T11:27:08.563Z,100995.17
2018-12-20T11:32:20.325Z,100997.44
2018-12-20T11:37:27.820Z,100987.62
2018-12-20T11:42:35.522Z,100981.48
2018-12-20T11:47:46.088Z,100974.94
2018-12-20T11:52:53.476Z,100974.38
2018-12-20T11:58:02.406Z,100974.32
2018-12-20T12:03:11.505Z,100964.52
2018-12-20T12:08:21.440Z,100964.52
2018-12-20T12:13:28.772Z,100968.05
2018-12-20T12:18:41.470Z,100965.33
2018-12-20T12:23:47.929Z,100968.73
2018-12-20T12:28:58.961Z,100957.96
2018-12-20T12:34:08.612Z,100962.77
2018-12-20T12:39:20.160Z,100957.61
2018-12-20T12:44:30.158Z,100954.05
2018-12-20T12:49:38.739Z,100956.48
2018-12-20T12:54:48.292Z,100959.59
2018-12-20T12:59:55.539Z,100961.02
2018-12-20T13:05:06.952Z,100959.95
2018-12-20T13:10:17.600Z,100955.44
2018-12-20T13:15:26.478Z,100953.71
2018-12-20T13:20:38.819Z,100952.58
2018-12-20T13:25:47.811Z,100944.25
2018-12-20T13:30:56.125Z,100941.48
2018-12-20T13:36:06.591Z,100934.80
2018-12-20T13:41:15.650Z,100940.06
2018-12-20T13:46:26.144Z,100940.06
2018-12-20T13:51:33.727Z,100939.06
2018-12-20T13:56:41.322Z,100941.32
2018-12-20T14:01:49.220Z,100941.25
2018-12-20T14:06:57.538Z,100939.42
2018-12-20T14:12:07.424Z,100941.19
2018-12-20T14:17:14.688Z,100940.13
2018-12-20T14:22:24.287Z,100941.27
2018-12-20T14:27:33.594Z,100937.17
2018-12-20T14:32:41.794Z,100942.22
2018-12-20T14:37:54.496Z,100950.51
2018-12-20T14:43:01.691Z,100946.09
2018-12-20T14:48:09.716Z,100950.58
2018-12-20T14:53:17.015Z,100957.70
2018-12-20T14:58:24.868Z,100963.02
2018-12-20T15:03:35.519Z,100963.02
2018-12-20T15:08:46.722Z,100970.09
2018-12-20T15:13:55.974Z,100959.72
2018-12-20T15:19:03.969Z,100956.81
2018-12-20T15:24:14.375Z,100962.84
2018-12-20T15:29:20.764Z,100970.62
2018-12-20T15:34:28.779Z,100981.91
2018-12-20T15:39:37.593Z,100987.81
2018-12-20T15:44:47.146Z,100991.63
2018-12-20T15:50:02.979Z,100998.75
2018-12-20T15:55:10.538Z,101003.37
2018-12-20T16:00:15.780Z,101019.05
2018-12-20T16:05:24.686Z,101011.05
2018-12-20T16:10:36.535Z,101018.75
2018-12-20T16:15:45.328Z,101018.75
2018-12-20T16:20:54.948Z,101023.28
2018-12-20T16:26:04.789Z,101019.76
2018-12-20T16:31:13.733Z,101025.14
2018-12-20T16:36:21.183Z,101027.00
2018-12-20T16:41:30.039Z,101029.13
2018-12-20T16:46:36.035Z,101033.47
2018-12-20T16:51:46.309Z,101036.24
2018-12-20T16:56:58.406Z,101036.24
2018-12-20T17:02:07.178Z,101033.66
2018-12-20T17:07:15.078Z,101039.44
2018-12-20T17:12:20.532Z,101032.03
2018-12-20T17:17:36.259Z,101025.66
2018-12-20T17:22:45.868Z,101023.23
2018-12-20T17:27:55.768Z,101020.30
2018-12-20T17:33:04.488Z,101023.06
2018-12-20T17:38:13.886Z,101021.97
2018-12-20T17:43:25.858Z,101016.03
2018-12-20T17:48:37.710Z,101026.38
2018-12-20T17:53:45.739Z,101013.77
2018-12-20T17:58:59.300Z,101015.40
2018-12-20T18:04:06.803Z,101015.33
2018-12-20T18:09:15.559Z,101009.98
2018-12-20T18:14:24.367Z,101014.44
2018-12-20T18:19:39.044Z,101007.16
2018-12-20T18:24:44.093Z,101000.98
2018-12-20T18:29:54.016Z,101000.49
2018-12-20T18:35:06.305Z,101000.22
2018-12-20T18:40:15.609Z,101002.09
2018-12-20T18:45:26.193Z,100998.52
2018-12-20T18:50:33.082Z,101010.84
2018-12-20T18:55:42.486Z,101011.52
2018-12-20T19:00:49.676Z,101022.42
2018-12-20T19:05:58.777Z,101020.55
2018-12-20T19:11:06.849Z,101022.30
2018-12-20T19:16:16.720Z,101027.52
2018-12-20T19:21:23.878Z,101029.95
2018-12-20T19:26:32.648Z,101030.66
2018-12-20T19:31:40.249Z,101022.02
2018-12-20T19:36:46.285Z,101019.50
2018-12-20T19:41:55.952Z,101013.36
2018-12-20T19:47:08.249Z,101016.71
2018-12-20T19:52:15.431Z,101011.48
2018-12-20T19:57:21.892Z,101014.59
2018-12-20T20:02:34.275Z,101012.26
2018-12-20T20:07:42.240Z,101019.07
2018-12-20T20:12:51.849Z,101029.84
2018-12-20T20:18:06.576Z,101030.19
2018-12-20T20:23:15.309Z,101028.53
2018-12-20T20:28:27.392Z,101031.85
2018-12-20T20:33:36.527Z,101032.16
2018-12-20T20:38:43.998Z,101031.81
2018-12-20T20:43:55.558Z,101023.51
2018-12-20T20:49:24.821Z,101023.80
2018-12-20T20:54:31.719Z,101017.72
2018-12-20T20:59:50.667Z,101017.41
2018-12-20T21:04:50.177Z,101017.27
2018-12-20T21:09:58.469Z,100998.93
2018-12-20T21:15:06.434Z,100998.62
2018-12-20T21:20:13.852Z,101002.58
2018-12-20T21:25:22.087Z,101001.88
2018-12-20T21:30:28.625Z,101000.14
2018-12-20T21:35:43.583Z,101006.25
2018-12-20T21:40:54.222Z,100995.52
2018-12-20T21:46:02.178Z,101000.30
2018-12-20T21:51:11.785Z,101001.49
2018-12-20T21:56:24.941Z,101007.42
2018-12-20T22:01:37.769Z,101015.23
2018-12-20T22:06:46.840Z,101009.95
2018-12-20T22:11:55.114Z,101016.30
2018-12-20T22:17:01.827Z,101005.50
2018-12-20T22:22:10.514Z,101007.46
2018-12-20T22:27:20.742Z,100996.63
2018-12-20T22:32:30.335Z,101007.63
2018-12-20T22:37:38.622Z,101007.88
2018-12-20T22:42:46.914Z,101001.36
2018-12-20T22:47:54.996Z,100987.95
2018-12-20T22:53:04.081Z,101003.02
2018-12-20T22:58:11.582Z,100986.55
2018-12-20T23:03:23.967Z,100982.95
2018-12-20T23:08:33.069Z,100967.16
2018-12-20T23:13:42.504Z,100960.62
2018-12-20T23:18:50.567Z,100956.00
2018-12-20T23:23:57.806Z,100959.17
2018-12-20T23:29:09.005Z,100956.23
2018-12-20T23:34:18.195Z,100952.81
2018-12-20T23:39:30.291Z,100950.20
2018-12-20T23:44:42.659Z,100942.37
2018-12-20T23:49:51.816Z,100936.48
2018-12-20T23:54:58.989Z,100928.11
